Time;durP1;ratioP1;P1;durP2;ratioP2;P2;SDS_P1;SDS_P2;PMS_P1;PMS_P2;Temp;Humidity;BMP_temperature;BMP_pressure;BME280_temperature;BME280_humidity;BME280_pressure;Samples;Min_cycle;Max_cycle;Signal;HPM_P1;HPM_P2
2022/12/05 00:00:25;;;;;;;62.83;18.55;;;-1.10;99.90;;;;;;5074606;28;20029;-82
2022/12/05 00:02:50;;;;;;;55.65;21.50;;;-1.20;99.90;;;;;;5075835;28;20477;-82
2022/12/05 00:05:16;;;;;;;65.68;20.17;;;-1.20;99.90;;;;;;5074597;28;20034;-81
2022/12/05 00:07:41;;;;;;;58.53;21.55;;;-1.20;99.90;;;;;;5074391;28;20029;-82
2022/12/05 00:10:07;;;;;;;61.58;21.27;;;-1.20;99.90;;;;;;5074419;28;20416;-82
2022/12/05 00:12:33;;;;;;;61.78;20.65;;;-1.20;99.90;;;;;;5075528;28;20032;-82
2022/12/05 00:14:59;;;;;;;64.55;21.35;;;-1.20;99.90;;;;;;5075644;28;20047;-83
2022/12/05 00:17:24;;;;;;;65.63;20.35;;;-1.20;99.90;;;;;;5066722;28;20075;-82
2022/12/05 00:19:50;;;;;;;49.28;20.92;;;-1.20;99.90;;;;;;5055625;28;20111;-82
2022/12/05 00:22:15;;;;;;;49.22;19.63;;;-1.20;99.90;;;;;;5054077;28;20100;-83
2022/12/05 00:24:41;;;;;;;46.53;18.35;;;-1.20;99.90;;;;;;5054044;28;20029;-82
2022/12/05 00:27:07;;;;;;;44.00;18.42;;;-1.20;99.90;;;;;;5054000;28;20044;-82
2022/12/05 00:29:32;;;;;;;49.33;18.55;;;-1.20;99.90;;;;;;5055295;28;20024;-82
2022/12/05 00:31:58;;;;;;;53.00;18.92;;;-1.20;99.90;;;;;;5054204;28;20028;-82
2022/12/05 00:34:23;;;;;;;57.72;19.60;;;-1.20;99.90;;;;;;5053963;28;20056;-83
2022/12/05 00:36:49;;;;;;;46.70;17.20;;;-1.20;99.90;;;;;;5056428;28;20442;-82
2022/12/05 00:39:16;;;;;;;48.70;15.82;;;-1.20;99.90;;;;;;5073654;28;20023;-83
2022/12/05 00:41:42;;;;;;;47.45;17.48;;;-1.20;99.90;;;;;;5073838;28;20020;-82
2022/12/05 00:44:09;;;;;;;43.80;18.10;;;-1.30;99.90;;;;;;5073514;28;20110;-82
2022/12/05 00:46:36;;;;;;;58.25;19.88;;;-1.20;99.90;;;;;;5068366;28;20102;-82
2022/12/05 00:49:03;;;;;;;52.15;20.45;;;-1.20;99.90;;;;;;5053638;28;20041;-82
2022/12/05 00:51:35;;;;;;;50.90;19.20;;;-1.20;99.90;;;;;;5054764;28;20116;-82
2022/12/05 00:54:04;;;;;;;57.30;18.73;;;-1.30;99.90;;;;;;5053370;28;20029;-82
2022/12/05 00:56:30;;;;;;;56.70;19.40;;;-1.20;99.90;;;;;;5056881;28;20016;-81
2022/12/05 00:58:57;;;;;;;50.00;18.15;;;-1.20;99.90;;;;;;5074746;28;20020;-82
2022/12/05 01:01:27;;;;;;;40.28;16.55;;;-1.20;99.90;;;;;;5073387;28;20029;-82
2022/12/05 01:03:55;;;;;;;49.75;21.15;;;-1.20;99.90;;;;;;5073591;28;20029;-82
2022/12/05 01:06:21;;;;;;;53.30;19.73;;;-1.20;99.90;;;;;;5073283;28;20470;-81
2022/12/05 01:08:47;;;;;;;62.00;20.60;;;-1.30;99.90;;;;;;5073209;28;20020;-82
2022/12/05 01:11:17;;;;;;;46.42;18.98;;;-1.30;99.90;;;;;;5073203;28;20555;-81
2022/12/05 01:13:43;;;;;;;59.22;19.60;;;-1.30;99.90;;;;;;5073101;28;20032;-81
2022/12/05 01:16:17;;;;;;;46.97;17.58;;;-1.30;99.90;;;;;;5073104;28;20026;-82
2022/12/05 01:18:43;;;;;;;49.38;18.17;;;-1.30;99.90;;;;;;5073121;28;20020;-83
2022/12/05 01:21:09;;;;;;;54.13;20.40;;;-1.30;99.90;;;;;;5073026;28;20448;-82
2022/12/05 01:23:34;;;;;;;55.95;22.88;;;-1.30;99.90;;;;;;5072891;28;20032;-82
2022/12/05 01:26:05;;;;;;;50.80;19.33;;;-1.30;99.90;;;;;;5073009;28;20031;-81
2022/12/05 01:28:32;;;;;;;53.47;19.10;;;-1.30;99.90;;;;;;5072801;28;20478;-82
2022/12/05 01:31:02;;;;;;;45.58;17.15;;;-1.30;99.90;;;;;;5072860;28;20021;-82
2022/12/05 01:33:28;;;;;;;49.88;19.60;;;-1.30;99.90;;;;;;5068684;28;20028;-82
2022/12/05 01:35:53;;;;;;;46.20;18.40;;;-1.30;99.90;;;;;;5052793;28;20383;-81
2022/12/05 01:38:19;;;;;;;48.80;19.40;;;-1.30;99.90;;;;;;5053948;28;20348;-82
2022/12/05 01:40:44;;;;;;;57.22;20.95;;;-1.30;99.90;;;;;;5053865;28;20126;-82
2022/12/05 01:43:17;;;;;;;52.00;20.10;;;-1.30;99.90;;;;;;5052774;28;20028;-82
2022/12/05 01:45:45;;;;;;;56.65;20.88;;;-1.30;99.90;;;;;;5053824;28;20076;-82
2022/12/05 01:48:29;;;;;;;44.22;17.90;;;-1.20;99.90;;;;;;5053733;28;20100;-82
2022/12/05 01:50:55;;;;;;;46.08;18.85;;;-1.30;99.90;;;;;;5052282;28;20053;-82
2022/12/05 01:53:22;;;;;;;36.15;15.30;;;-1.30;99.90;;;;;;5053767;28;20420;-82
2022/12/05 01:55:49;;;;;;;46.38;19.05;;;-1.30;99.90;;;;;;5053671;28;20021;-81
2022/12/05 01:58:15;;;;;;;50.05;19.13;;;-1.30;99.90;;;;;;5070027;28;20028;-81
2022/12/05 02:00:41;;;;;;;47.92;18.25;;;-1.20;99.90;;;;;;5072227;28;20021;-81
2022/12/05 02:03:10;;;;;;;45.45;19.38;;;-1.20;99.90;;;;;;5058339;28;20082;-82
2022/12/05 02:05:37;;;;;;;38.40;17.17;;;-1.20;99.90;;;;;;5052013;28;20020;-81
2022/12/05 02:08:06;;;;;;;46.58;16.38;;;-1.20;99.90;;;;;;5052217;28;20025;-82
2022/12/05 02:10:49;;;;;;;48.95;17.92;;;-1.30;99.90;;;;;;5052056;28;20048;-81
2022/12/05 02:13:36;;;;;;;61.55;23.90;;;-1.20;99.90;;;;;;5052168;28;20047;-83
2022/12/05 02:16:20;;;;;;;40.08;16.58;;;-1.20;99.90;;;;;;5053345;28;20037;-82
2022/12/05 02:19:23;;;;;;;39.95;18.40;;;-1.20;99.90;;;;;;5052058;28;20029;-81
2022/12/05 02:22:16;;;;;;;48.55;19.50;;;-1.20;99.90;;;;;;5051745;28;20457;-83
2022/12/05 02:25:17;;;;;;;;;;;-1.20;99.90;;;;;;5053620;28;20033;-83
2022/12/05 02:28:26;;;;;;;47.03;16.75;;;-1.20;99.90;;;;;;5031275;28;19963;-82
2022/12/05 02:31:17;;;;;;;42.55;19.10;;;-1.20;99.90;;;;;;5053113;28;20029;-82
2022/12/05 02:33:58;;;;;;;43.08;16.90;;;-1.20;99.90;;;;;;5051671;28;20580;-82
2022/12/05 02:36:46;;;;;;;48.15;17.83;;;-1.20;99.90;;;;;;5051847;28;20025;-82
2022/12/05 02:39:29;;;;;;;47.28;19.02;;;-1.20;99.90;;;;;;5052976;28;20033;-82
2022/12/05 02:42:09;;;;;;;36.97;15.43;;;-1.20;99.90;;;;;;5054484;28;20033;-82
2022/12/05 02:44:49;;;;;;;36.83;16.98;;;-1.20;99.90;;;;;;5071526;28;20080;-82
2022/12/05 02:47:20;;;;;;;38.33;15.50;;;-1.20;99.90;;;;;;5060423;28;20025;-82
2022/12/05 02:49:47;;;;;;;52.20;17.08;;;-1.20;99.90;;;;;;5052785;28;20017;-82
2022/12/05 02:52:15;;;;;;;50.58;18.02;;;-1.20;99.90;;;;;;5052803;28;20029;-81
2022/12/05 02:54:43;;;;;;;41.45;15.15;;;-1.20;99.90;;;;;;5052753;28;20075;-81
2022/12/05 02:57:10;;;;;;;51.20;17.63;;;-1.20;99.90;;;;;;5061095;28;20417;-82
2022/12/05 02:59:36;;;;;;;45.65;17.05;;;-1.20;99.90;;;;;;5071442;28;20042;-82
2022/12/05 03:02:02;;;;;;;47.55;16.42;;;-1.20;99.90;;;;;;5071640;28;20053;-82
2022/12/05 03:04:30;;;;;;;48.05;17.05;;;-1.20;99.90;;;;;;5071506;28;20037;-81
2022/12/05 03:06:59;;;;;;;41.08;16.05;;;-1.20;99.90;;;;;;5071637;28;20112;-82
2022/12/05 03:09:38;;;;;;;43.92;18.73;;;-1.20;99.90;;;;;;5072538;28;20027;-82
2022/12/05 03:12:17;;;;;;;37.88;16.50;;;-1.20;99.90;;;;;;5075411;28;20481;-82
2022/12/05 03:14:57;;;;;;;52.28;17.20;;;-1.20;99.90;;;;;;5075398;28;20029;-82
2022/12/05 03:17:30;;;;;;;53.50;17.20;;;-1.20;99.90;;;;;;5076851;28;20021;-82
2022/12/05 03:19:59;;;;;;;43.78;16.63;;;-1.20;99.90;;;;;;5075361;28;20081;-82
2022/12/05 03:22:40;;;;;;;52.70;18.13;;;-1.20;99.90;;;;;;5075228;28;20063;-82
2022/12/05 03:25:07;;;;;;;59.55;20.45;;;-1.20;99.90;;;;;;5076530;28;20021;-82
2022/12/05 03:28:19;;;;;;;42.38;17.10;;;-1.20;99.90;;;;;;5076517;28;20087;-82
2022/12/05 03:30:48;;;;;;;44.83;17.15;;;-1.20;99.90;;;;;;5060053;28;20036;-83
2022/12/05 03:33:19;;;;;;;56.83;18.52;;;-1.20;99.90;;;;;;5074852;28;20029;-82
2022/12/05 03:35:52;;;;;;;47.45;17.67;;;-1.20;99.90;;;;;;5076237;28;20389;-82
2022/12/05 03:38:24;;;;;;;40.90;17.58;;;-1.20;99.90;;;;;;5075076;28;20020;-81
2022/12/05 03:40:55;;;;;;;45.83;17.13;;;-1.20;99.90;;;;;;5074703;28;20497;-82
2022/12/05 03:43:46;;;;;;;36.60;14.52;;;-1.20;99.90;;;;;;5074985;28;20021;-82
2022/12/05 03:46:30;;;;;;;41.90;16.65;;;-1.20;99.90;;;;;;5070559;28;20486;-82
2022/12/05 03:49:02;;;;;;;38.15;14.55;;;-1.20;99.90;;;;;;5054924;28;20021;-83
2022/12/05 03:51:33;;;;;;;39.03;14.63;;;-1.20;99.90;;;;;;5054427;28;20036;-82
2022/12/05 03:54:17;;;;;;;44.22;16.20;;;-1.20;99.90;;;;;;5034759;28;20040;-82
2022/12/05 03:56:51;;;;;;;50.95;17.48;;;-1.20;99.90;;;;;;5046852;28;20021;-82
2022/12/05 03:59:29;;;;;;;45.50;18.45;;;-1.20;99.90;;;;;;5075995;28;20028;-83
2022/12/05 04:01:56;;;;;;;47.40;20.02;;;-1.10;99.90;;;;;;5074544;28;20028;-81
2022/12/05 04:04:29;;;;;;;60.28;20.60;;;-1.10;99.90;;;;;;5075742;28;20021;-83
2022/12/05 04:07:00;;;;;;;50.10;19.20;;;-1.10;99.90;;;;;;5074529;28;20107;-83
2022/12/05 04:09:49;;;;;;;50.58;19.33;;;-1.10;99.90;;;;;;5074693;28;20075;-81
2022/12/05 04:12:22;;;;;;;47.20;19.10;;;-1.00;99.90;;;;;;5074148;28;20021;-81
2022/12/05 04:14:52;;;;;;;45.40;18.75;;;-1.10;99.90;;;;;;5074385;28;20032;-82
2022/12/05 04:17:30;;;;;;;57.60;19.42;;;-1.10;99.90;;;;;;5074333;28;20046;-82
2022/12/05 04:23:09;;;;;;;44.20;16.90;;;-1.10;99.90;;;;;;5075594;28;20066;-81
2022/12/05 04:26:20;;;;;;;42.72;17.05;;;-1.20;99.90;;;;;;5074214;28;20025;-81
2022/12/05 04:29:00;;;;;;;60.08;17.23;;;-1.20;99.90;;;;;;5073301;28;20041;-83
2022/12/05 04:31:33;;;;;;;54.33;16.95;;;-1.20;99.90;;;;;;5075197;28;20021;-82
2022/12/05 04:34:06;;;;;;;45.05;16.95;;;-1.20;99.90;;;;;;5074055;28;20475;-83
2022/12/05 04:36:55;;;;;;;38.15;16.33;;;-1.20;99.90;;;;;;5075110;28;20021;-83
2022/12/05 04:39:59;;;;;;;44.72;17.80;;;-1.20;99.90;;;;;;5074060;28;20031;-83
2022/12/05 04:42:28;;;;;;;45.50;17.80;;;-1.20;99.90;;;;;;5029390;28;20386;-83
2022/12/05 04:45:05;;;;;;;47.25;19.27;;;-1.20;99.90;;;;;;5050235;28;20404;-81
2022/12/05 04:47:38;;;;;;;47.03;17.65;;;-1.20;99.90;;;;;;5053536;28;20116;-82
2022/12/05 04:50:06;;;;;;;54.22;19.00;;;-1.20;99.90;;;;;;5055143;28;20036;-82
2022/12/05 04:52:32;;;;;;;46.10;18.40;;;-1.20;99.90;;;;;;5053386;28;20067;-82
2022/12/05 04:55:06;;;;;;;48.38;17.13;;;-1.20;99.90;;;;;;5054871;28;20057;-82
2022/12/05 04:57:39;;;;;;;46.10;18.20;;;-1.20;99.90;;;;;;5054618;28;20025;-82
2022/12/05 05:00:06;;;;;;;45.00;16.50;;;-1.20;99.90;;;;;;5053564;28;20027;-81
2022/12/05 05:02:39;;;;;;;47.38;16.95;;;-1.20;99.90;;;;;;5067814;28;20070;-82
2022/12/05 05:05:09;;;;;;;45.55;16.83;;;-1.20;99.90;;;;;;5073362;28;20497;-81
2022/12/05 05:07:46;;;;;;;45.13;17.63;;;-1.20;99.90;;;;;;5073214;28;20390;-83
2022/12/05 05:10:16;;;;;;;40.53;16.17;;;-1.20;99.90;;;;;;5073271;28;20415;-83
2022/12/05 05:12:42;;;;;;;54.55;18.42;;;-1.30;99.90;;;;;;5073083;28;20037;-82
2022/12/05 05:15:07;;;;;;;47.38;17.38;;;-1.20;99.90;;;;;;5073186;28;20486;-82
2022/12/05 05:17:33;;;;;;;52.40;19.52;;;-1.20;99.90;;;;;;5072970;28;20116;-82
2022/12/05 05:22:43;;;;;;;45.42;18.42;;;-1.20;99.90;;;;;;5059403;28;20546;-82
2022/12/05 05:25:08;;;;;;;43.90;17.83;;;-1.20;99.90;;;;;;5052990;28;20057;-83
2022/12/05 05:27:34;;;;;;;48.83;16.10;;;-1.20;99.90;;;;;;5052871;28;20517;-82
2022/12/05 05:29:59;;;;;;;50.05;18.10;;;-1.20;99.90;;;;;;5054276;28;20430;-82
2022/12/05 05:32:25;;;;;;;40.08;16.50;;;-1.20;99.90;;;;;;5051712;28;20017;-81
2022/12/05 05:34:50;;;;;;;39.60;17.02;;;-1.20;99.90;;;;;;5054179;28;20074;-82
2022/12/05 05:37:16;;;;;;;44.95;18.02;;;-1.20;99.90;;;;;;5052679;28;20052;-83
2022/12/05 05:39:42;;;;;;;67.65;19.08;;;-1.20;99.90;;;;;;5053951;28;20029;-82
2022/12/05 05:42:07;;;;;;;47.00;15.95;;;-1.20;99.90;;;;;;5054015;28;20074;-83
2022/12/05 05:44:33;;;;;;;41.83;18.27;;;-1.20;99.90;;;;;;5052466;28;20052;-82
2022/12/05 05:46:58;;;;;;;47.55;18.00;;;-1.20;99.90;;;;;;5052545;28;20017;-81
2022/12/05 05:49:24;;;;;;;51.17;16.10;;;-1.20;99.90;;;;;;5052366;28;20025;-83
2022/12/05 05:51:49;;;;;;;41.42;15.55;;;-1.20;99.90;;;;;;5053865;28;20386;-83
2022/12/05 05:54:15;;;;;;;46.50;16.63;;;-1.20;99.90;;;;;;5052325;28;20160;-83
2022/12/05 05:56:41;;;;;;;45.38;17.77;;;-1.20;99.90;;;;;;5060131;28;20066;-83
2022/12/05 05:59:06;;;;;;;42.85;17.38;;;-1.20;99.90;;;;;;5072300;28;20025;-83
2022/12/05 06:01:32;;;;;;;42.97;18.60;;;-1.20;99.90;;;;;;5059715;28;20052;-82
2022/12/05 06:03:58;;;;;;;55.33;19.48;;;-1.10;99.90;;;;;;5053585;28;20025;-83
2022/12/05 06:06:24;;;;;;;42.58;17.58;;;-1.10;99.90;;;;;;5049588;28;20120;-84
2022/12/05 06:08:50;;;;;;;48.03;19.25;;;-1.10;99.90;;;;;;5053370;28;20083;-82
2022/12/05 06:11:21;;;;;;;48.15;18.08;;;-1.10;99.90;;;;;;5052063;28;20029;-82
2022/12/05 06:13:47;;;;;;;57.65;18.95;;;-1.10;99.90;;;;;;5051952;28;20482;-81
2022/12/05 06:16:15;;;;;;;43.75;17.92;;;-1.10;99.90;;;;;;5053459;28;20033;-82
2022/12/05 06:18:41;;;;;;;47.95;18.23;;;-1.10;99.90;;;;;;5053158;28;20028;-79
2022/12/05 06:21:07;;;;;;;55.50;22.20;;;-1.10;99.90;;;;;;5053193;28;20390;-80
2022/12/05 06:23:34;;;;;;;59.35;22.65;;;-1.10;99.90;;;;;;5039381;28;20037;-80
2022/12/05 06:26:00;;;;;;;55.45;22.45;;;-1.10;99.90;;;;;;5044531;28;20076;-81
2022/12/05 06:28:25;;;;;;;51.50;22.63;;;-1.00;99.90;;;;;;5041497;28;20045;-81
2022/12/05 06:30:51;;;;;;;56.53;21.50;;;-1.00;99.90;;;;;;5048423;28;20072;-81
2022/12/05 06:33:17;;;;;;;56.60;22.70;;;-1.00;99.90;;;;;;5047586;28;20187;-80
2022/12/05 06:35:43;;;;;;;85.72;23.88;;;-1.00;99.90;;;;;;5039034;28;20033;-81
2022/12/05 06:38:09;;;;;;;63.35;24.30;;;-1.00;99.90;;;;;;5044569;28;20394;-80
2022/12/05 06:40:40;;;;;;;68.53;25.85;;;-1.00;99.90;;;;;;5046203;28;20055;-80
2022/12/05 06:43:05;;;;;;;82.05;27.33;;;-1.00;99.90;;;;;;5036122;28;20021;-81
2022/12/05 06:45:31;;;;;;;79.03;29.30;;;-1.00;99.90;;;;;;5032850;28;20049;-82
2022/12/05 06:47:56;;;;;;;72.28;27.48;;;-1.00;99.90;;;;;;5043168;28;20053;-82
2022/12/05 06:50:22;;;;;;;69.53;27.67;;;-1.00;99.90;;;;;;5037781;28;20084;-81
2022/12/05 06:52:49;;;;;;;69.65;24.73;;;-1.00;99.90;;;;;;5032772;28;20374;-80
2022/12/05 06:55:15;;;;;;;66.32;26.23;;;-1.00;99.90;;;;;;5032915;28;20084;-80
2022/12/05 06:57:40;;;;;;;68.47;26.63;;;-1.00;99.90;;;;;;5061869;28;20413;-81
2022/12/05 07:02:52;;;;;;;53.50;24.40;;;-0.90;99.90;;;;;;5050919;28;20041;-80
2022/12/05 07:05:17;;;;;;;64.78;24.15;;;-0.90;99.90;;;;;;5040967;28;20026;-80
2022/12/05 07:07:43;;;;;;;59.90;25.80;;;-0.90;99.90;;;;;;5043283;28;20475;-81
2022/12/05 07:10:09;;;;;;;58.67;26.48;;;-0.90;99.90;;;;;;5039973;28;20394;-80
2022/12/05 07:12:34;;;;;;;68.78;25.98;;;-0.90;99.90;;;;;;5041757;28;20071;-82
2022/12/05 07:15:00;;;;;;;76.75;28.75;;;-0.90;99.90;;;;;;5041896;28;20078;-82
2022/12/05 07:17:26;;;;;;;84.38;31.95;;;-0.80;99.90;;;;;;5049713;28;20017;-83
2022/12/05 07:19:53;;;;;;;90.43;32.45;;;-0.80;99.90;;;;;;5061418;28;20058;-83
2022/12/05 07:22:21;;;;;;;92.07;33.85;;;-0.80;99.90;;;;;;5072768;28;20121;-80
2022/12/05 07:24:47;;;;;;;75.65;27.98;;;-0.80;99.90;;;;;;5071102;28;20063;-81
2022/12/05 07:27:14;;;;;;;71.40;28.75;;;-0.70;99.90;;;;;;5072491;28;20025;-81
2022/12/05 07:29:40;;;;;;;56.65;25.67;;;-0.80;99.90;;;;;;5071081;28;20020;-82
2022/12/05 07:32:06;;;;;;;72.97;27.55;;;-0.70;99.90;;;;;;5071204;28;20064;-82
2022/12/05 07:34:31;;;;;;;63.28;24.55;;;-0.70;99.90;;;;;;5072253;28;20067;-82
2022/12/05 07:36:57;;;;;;;55.65;24.67;;;-0.70;99.90;;;;;;5071284;28;20020;-82
2022/12/05 07:39:22;;;;;;;55.45;23.13;;;-0.70;99.90;;;;;;5072400;28;20029;-82
2022/12/05 07:41:48;;;;;;;64.75;24.45;;;-0.60;99.90;;;;;;5053150;28;20028;-82
2022/12/05 07:44:14;;;;;;;55.25;22.30;;;-0.60;99.90;;;;;;5052217;28;20056;-82
2022/12/05 07:46:40;;;;;;;54.97;24.98;;;-0.60;99.90;;;;;;5051096;28;20382;-82
2022/12/05 07:49:06;;;;;;;58.08;23.85;;;-0.50;99.90;;;;;;5050998;28;20415;-82
2022/12/05 07:51:32;;;;;;;60.60;23.48;;;-0.50;99.90;;;;;;5051979;28;20471;-82
2022/12/05 07:53:58;;;;;;;49.33;20.90;;;-0.50;99.90;;;;;;5052159;28;20036;-82
2022/12/05 07:56:24;;;;;;;63.60;24.33;;;-0.40;99.90;;;;;;5058392;28;20438;-81
2022/12/05 07:58:51;;;;;;;59.47;24.25;;;-0.40;99.90;;;;;;5075825;28;20039;-81
2022/12/05 08:01:20;;;;;;;47.70;21.15;;;-0.40;99.90;;;;;;5067731;28;20119;-80
2022/12/05 08:03:46;;;;;;;51.65;21.85;;;-0.40;99.90;;;;;;5055746;28;20033;-81
2022/12/05 08:06:18;;;;;;;47.22;20.90;;;-0.40;99.90;;;;;;5054499;28;20021;-82
2022/12/05 08:08:44;;;;;;;47.83;19.98;;;-0.40;99.90;;;;;;5054259;28;20057;-82
2022/12/05 08:11:16;;;;;;;49.05;18.38;;;-0.40;99.90;;;;;;5055584;28;20029;-82
2022/12/05 08:13:42;;;;;;;50.95;21.38;;;-0.40;99.90;;;;;;5055436;28;20033;-82
2022/12/05 08:16:15;;;;;;;46.45;20.95;;;-0.40;99.90;;;;;;5053851;28;20490;-82
2022/12/05 08:18:41;;;;;;;;;;;-0.30;99.90;;;;;;5047182;28;20030;-82
2022/12/05 08:21:09;;;;;;;55.42;22.70;;;-0.40;99.90;;;;;;5045368;28;19911;-82
2022/12/05 08:23:35;;;;;;;56.08;22.15;;;-0.40;99.90;;;;;;5054128;28;20028;-81
2022/12/05 08:26:03;;;;;;;43.65;20.02;;;-0.40;99.90;;;;;;5053778;28;20352;-81
2022/12/05 08:28:29;;;;;;;56.85;22.00;;;-0.30;99.90;;;;;;5055290;28;20079;-81
2022/12/05 08:30:55;;;;;;;51.10;22.35;;;-0.30;99.90;;;;;;5053915;28;20090;-81
2022/12/05 08:33:20;;;;;;;55.85;22.92;;;-0.30;99.90;;;;;;5049154;28;20376;-81
2022/12/05 08:35:46;;;;;;;54.97;21.63;;;-0.20;99.90;;;;;;5052422;28;20037;-79
2022/12/05 08:38:12;;;;;;;55.78;21.73;;;-0.20;99.90;;;;;;5053960;28;20079;-81
2022/12/05 08:40:37;;;;;;;45.60;20.65;;;-0.10;99.90;;;;;;5054990;28;20510;-80
2022/12/05 08:43:03;;;;;;;46.90;21.77;;;-0.10;99.90;;;;;;5054085;28;20093;-81
2022/12/05 08:45:28;;;;;;;47.97;19.75;;;-0.10;99.90;;;;;;5054734;28;20084;-80
2022/12/05 08:47:54;;;;;;;45.28;19.80;;;-0.10;99.90;;;;;;5053622;28;20470;-81
2022/12/05 08:50:19;;;;;;;44.28;21.75;;;0.00;99.90;;;;;;5053633;28;20113;-80
2022/12/05 08:52:45;;;;;;;54.00;23.58;;;0.00;99.90;;;;;;5053510;28;20033;-80
2022/12/05 08:55:11;;;;;;;50.00;21.92;;;0.10;99.90;;;;;;5053576;28;20033;-82
2022/12/05 08:57:37;;;;;;;47.33;22.33;;;0.20;99.90;;;;;;5047366;28;20025;-81
2022/12/05 09:00:04;;;;;;;50.10;21.70;;;0.30;99.90;;;;;;5048816;28;20036;-82
2022/12/05 09:02:30;;;;;;;49.53;21.52;;;0.20;99.90;;;;;;5047342;28;20482;-80
2022/12/05 09:04:56;;;;;;;45.88;21.65;;;0.10;99.90;;;;;;5053230;28;20040;-82
2022/12/05 09:07:21;;;;;;;52.50;23.30;;;0.20;99.90;;;;;;5053399;28;20482;-82
2022/12/05 09:09:47;;;;;;;51.22;23.30;;;0.20;99.90;;;;;;5048285;28;20025;-80
2022/12/05 09:12:13;;;;;;;48.80;24.38;;;0.30;99.90;;;;;;5038431;28;20128;-81
2022/12/05 09:14:39;;;;;;;48.50;22.27;;;0.40;99.90;;;;;;5034441;28;20387;-82
2022/12/05 09:17:05;;;;;;;54.85;23.73;;;0.40;99.90;;;;;;5048703;28;20033;-81
2022/12/05 09:19:31;;;;;;;55.53;22.33;;;0.50;99.90;;;;;;5053086;28;20021;-80
2022/12/05 09:21:57;;;;;;;52.20;23.08;;;0.60;99.90;;;;;;5053018;28;20032;-81
2022/12/05 09:24:23;;;;;;;47.45;20.65;;;0.60;99.90;;;;;;5052968;28;20024;-80
2022/12/05 09:26:49;;;;;;;53.13;24.55;;;0.60;99.90;;;;;;5041748;28;20025;-79
2022/12/05 09:29:15;;;;;;;48.05;23.65;;;0.70;99.90;;;;;;5032716;28;20025;-83
2022/12/05 09:31:41;;;;;;;51.35;23.45;;;0.80;99.90;;;;;;5045784;28;20456;-80
2022/12/05 09:34:07;;;;;;;43.47;21.15;;;0.90;99.90;;;;;;5052626;28;20029;-82
2022/12/05 09:36:33;;;;;;;50.13;21.80;;;0.90;99.90;;;;;;5053016;28;20364;-81
2022/12/05 09:39:01;;;;;;;39.58;19.85;;;0.90;99.90;;;;;;5052330;28;20021;-81
2022/12/05 09:44:31;;;;;;;44.97;21.58;;;0.90;99.90;;;;;;5053848;28;20422;-80
2022/12/05 09:47:27;;;;;;;43.75;20.67;;;1.00;99.90;;;;;;5052582;28;20399;-81
2022/12/05 09:50:16;;;;;;;50.85;23.25;;;1.00;99.90;;;;;;5048734;28;20060;-80
2022/12/05 09:52:55;;;;;;;48.45;23.60;;;1.00;99.90;;;;;;5053628;28;20071;-82
2022/12/05 09:55:20;;;;;;;48.70;22.40;;;1.10;99.90;;;;;;5052257;28;20028;-79
2022/12/05 09:57:54;;;;;;;41.65;20.85;;;1.10;99.90;;;;;;5052393;28;20021;-82
2022/12/05 10:00:20;;;;;;;42.95;20.67;;;1.10;99.90;;;;;;5059383;28;20504;-79
2022/12/05 10:03:07;;;;;;;49.85;23.13;;;1.10;99.90;;;;;;5072393;28;20099;-82
2022/12/05 10:05:42;;;;;;;54.58;26.55;;;1.10;99.90;;;;;;5072189;28;20040;-82
2022/12/05 10:08:38;;;;;;;55.55;25.60;;;1.10;99.90;;;;;;5070796;28;20031;-82
2022/12/05 10:11:33;;;;;;;49.72;21.38;;;1.10;99.90;;;;;;5067186;28;20504;-80
2022/12/05 10:14:18;;;;;;;50.83;22.98;;;1.20;99.90;;;;;;5043683;28;20052;-80
2022/12/05 10:16:55;;;;;;;48.88;22.45;;;1.20;99.90;;;;;;5049667;28;20039;-80
2022/12/05 10:19:33;;;;;;;49.33;24.92;;;1.30;99.90;;;;;;5049181;28;20021;-81
2022/12/05 10:22:09;;;;;;;52.45;24.52;;;1.30;99.90;;;;;;5051510;28;20028;-82
2022/12/05 10:24:37;;;;;;;49.97;24.85;;;1.50;99.90;;;;;;5053140;28;20371;-81
2022/12/05 10:27:06;;;;;;;56.08;25.80;;;1.60;99.90;;;;;;5052038;28;20021;-80
2022/12/05 10:29:58;;;;;;;53.20;25.65;;;1.70;99.90;;;;;;5052093;28;20020;-82
2022/12/05 10:32:36;;;;;;;50.17;23.60;;;1.80;99.90;;;;;;5051902;28;20033;-80
2022/12/05 10:35:18;;;;;;;53.92;24.42;;;2.00;99.90;;;;;;5050366;28;20029;-82
2022/12/05 10:37:50;;;;;;;41.77;21.87;;;2.10;99.90;;;;;;5051380;28;20025;-82
2022/12/05 10:40:16;;;;;;;41.10;20.92;;;2.10;99.90;;;;;;5051180;28;20264;-80
2022/12/05 10:42:43;;;;;;;57.85;26.55;;;2.20;99.90;;;;;;5051039;28;20517;-80
2022/12/05 10:45:29;;;;;;;56.70;29.15;;;2.30;99.90;;;;;;5050973;28;20037;-80
2022/12/05 10:47:56;;;;;;;63.25;32.28;;;2.30;99.90;;;;;;5048915;28;20094;-80
2022/12/05 10:50:27;;;;;;;67.85;34.15;;;2.40;99.90;;;;;;5052527;28;20379;-80
2022/12/05 10:52:55;;;;;;;66.97;30.17;;;2.40;99.90;;;;;;5050732;28;20033;-79
2022/12/05 10:55:22;;;;;;;69.35;30.73;;;2.40;99.90;;;;;;5050984;28;20055;-80
2022/12/05 10:58:06;;;;;;;73.65;32.38;;;2.40;99.90;;;;;;5051200;28;20017;-80
2022/12/05 11:00:32;;;;;;;73.78;34.58;;;2.50;99.90;;;;;;5052762;28;20286;-82
2022/12/05 11:03:02;;;;;;;69.68;32.83;;;2.50;99.90;;;;;;5051618;28;20025;-82
2022/12/05 11:05:30;;;;;;;61.25;31.15;;;2.60;99.90;;;;;;5051842;28;20029;-81
2022/12/05 11:07:57;;;;;;;66.28;29.17;;;2.60;99.90;;;;;;5052680;28;20096;-80
2022/12/05 11:10:32;;;;;;;64.25;28.13;;;2.50;99.90;;;;;;5051334;28;20032;-82
2022/12/05 11:12:59;;;;;;;61.75;29.45;;;2.60;99.90;;;;;;5050793;28;20036;-83
2022/12/05 11:15:27;;;;;;;67.15;31.70;;;2.60;99.90;;;;;;5050790;28;20053;-83
2022/12/05 11:17:55;;;;;;;63.70;28.02;;;2.60;99.90;;;;;;5050617;28;20104;-82
2022/12/05 11:20:21;;;;;;;63.17;29.85;;;2.60;99.90;;;;;;5050734;28;20033;-82
2022/12/05 11:22:53;;;;;;;55.10;27.50;;;2.60;99.90;;;;;;5050663;28;20017;-82
2022/12/05 11:25:22;;;;;;;67.30;31.52;;;2.70;99.90;;;;;;5050712;28;20017;-82
2022/12/05 11:27:47;;;;;;;69.65;33.85;;;2.70;99.90;;;;;;5050520;28;20048;-83
2022/12/05 11:30:26;;;;;;;71.45;32.30;;;2.80;99.90;;;;;;5051445;28;20033;-83
2022/12/05 11:33:18;;;;;;;61.72;31.90;;;2.70;99.90;;;;;;5055259;28;20513;-81
2022/12/05 11:35:46;;;;;;;63.42;31.50;;;2.80;99.90;;;;;;5052684;28;20111;-81
2022/12/05 11:38:13;;;;;;;61.25;29.83;;;2.80;99.90;;;;;;5045907;28;20479;-82
2022/12/05 11:40:41;;;;;;;65.05;29.88;;;2.90;99.90;;;;;;5033498;28;20060;-80
2022/12/05 11:43:07;;;;;;;62.03;31.10;;;2.90;99.90;;;;;;5034570;28;20026;-81
2022/12/05 11:45:49;;;;;;;59.13;28.80;;;2.90;99.90;;;;;;5036135;28;20061;-83
2022/12/05 11:48:33;;;;;;;61.58;29.10;;;2.90;99.90;;;;;;5049176;28;20056;-83
2022/12/05 11:51:08;;;;;;;58.08;27.05;;;2.90;99.90;;;;;;5057737;28;20044;-80
2022/12/05 11:53:55;;;;;;;58.78;28.80;;;2.90;99.90;;;;;;5071995;28;20097;-80
2022/12/05 11:56:39;;;;;;;58.63;28.02;;;2.90;99.90;;;;;;5067835;28;20499;-80
2022/12/05 11:59:08;;;;;;;54.38;26.40;;;3.00;99.90;;;;;;5072578;28;20031;-81
2022/12/05 12:01:52;;;;;;;55.25;27.27;;;2.90;99.90;;;;;;5068042;28;20029;-81
2022/12/05 12:04:20;;;;;;;64.00;28.95;;;2.80;99.90;;;;;;5074478;28;20474;-83
2022/12/05 12:07:01;;;;;;;53.50;27.13;;;2.80;99.90;;;;;;5069989;28;20120;-83
2022/12/05 12:09:45;;;;;;;51.50;26.13;;;2.80;99.90;;;;;;5066776;28;20159;-83
2022/12/05 12:12:41;;;;;;;57.13;28.27;;;2.70;99.90;;;;;;5046622;28;20039;-82
2022/12/05 12:15:43;;;;;;;62.38;31.63;;;2.70;99.90;;;;;;5073233;28;20033;-83
2022/12/05 12:18:47;;;;;;;63.80;30.92;;;2.60;99.90;;;;;;5074086;28;20445;-83
2022/12/05 12:21:17;;;;;;;77.40;35.38;;;2.60;99.90;;;;;;5035593;28;20044;-82
2022/12/05 12:24:01;;;;;;;72.75;33.28;;;2.60;99.90;;;;;;5041915;28;20556;-80
2022/12/05 12:26:52;;;;;;;77.55;35.40;;;2.60;99.90;;;;;;5065824;28;20043;-80
2022/12/05 12:29:46;;;;;;;84.13;36.72;;;2.50;99.90;;;;;;5074399;28;20069;-80
2022/12/05 12:32:47;;;;;;;80.88;37.92;;;2.40;99.90;;;;;;5074071;28;20021;-80
2022/12/05 12:35:15;;;;;;;70.25;33.70;;;2.40;99.90;;;;;;5050954;28;20059;-79
2022/12/05 12:38:07;;;;;;;69.38;31.55;;;2.40;99.90;;;;;;5072652;28;20024;-82
2022/12/05 12:40:45;;;;;;;71.55;31.90;;;2.40;99.90;;;;;;5058738;28;20406;-82
2022/12/05 12:43:42;;;;;;;68.15;30.73;;;2.40;99.90;;;;;;5048782;28;20032;-83
2022/12/05 12:46:33;;;;;;;77.45;31.92;;;2.30;99.90;;;;;;5066435;28;20095;-80
2022/12/05 12:49:26;;;;;;;70.32;31.40;;;2.30;99.90;;;;;;5065523;28;20521;-80
2022/12/05 12:51:56;;;;;;;79.30;35.33;;;2.30;99.90;;;;;;5058973;28;20577;-80
2022/12/05 12:54:28;;;;;;;75.22;33.00;;;2.30;99.90;;;;;;5066350;28;20040;-83
2022/12/05 12:57:05;;;;;;;81.97;36.45;;;2.30;99.90;;;;;;5058096;28;20032;-80
2022/12/05 13:00:03;;;;;;;81.72;37.60;;;2.30;99.90;;;;;;5045173;28;20028;-80
2022/12/05 13:02:39;;;;;;;77.30;36.13;;;2.40;99.90;;;;;;5040383;28;20040;-80
2022/12/05 13:05:18;;;;;;;88.78;37.28;;;2.40;99.90;;;;;;5045406;28;20017;-81